sensor_id;sensor_type;location;lat;lon;timestamp;P1;durP1;ratioP1;P2;durP2;ratioP2
2558;SDS011;1289;53.488;10.006;2023-04-01T00:01:28;8.70;;;7.00;;
2558;SDS011;1289;53.488;10.006;2023-04-01T00:03:55;6.93;;;6.17;;
2558;SDS011;1289;53.488;10.006;2023-04-01T00:06:22;12.03;;;7.33;;
2558;SDS011;1289;53.488;10.006;2023-04-01T00:08:49;9.50;;;7.60;;
2558;SDS011;1289;53.488;10.006;2023-04-01T00:11:17;7.27;;;6.67;;
2558;SDS011;1289;53.488;10.006;2023-04-01T00:13:44;6.83;;;6.23;;
2558;SDS011;1289;53.488;10.006;2023-04-01T00:16:11;10.43;;;7.67;;
2558;SDS011;1289;53.488;10.006;2023-04-01T00:18:38;7.10;;;6.40;;
2558;SDS011;1289;53.488;10.006;2023-04-01T00:21:05;9.20;;;7.57;;
2558;SDS011;1289;53.488;10.006;2023-04-01T00:23:32;10.27;;;7.90;;
2558;SDS011;1289;53.488;10.006;2023-04-01T00:26:00;8.53;;;7.67;;
2558;SDS011;1289;53.488;10.006;2023-04-01T00:28:29;10.80;;;8.90;;
2558;SDS011;1289;53.488;10.006;2023-04-01T00:30:57;7.53;;;6.83;;
2558;SDS011;1289;53.488;10.006;2023-04-01T00:33:24;8.13;;;7.10;;
2558;SDS011;1289;53.488;10.006;2023-04-01T00:35:56;10.67;;;6.93;;
2558;SDS011;1289;53.488;10.006;2023-04-01T00:38:23;7.00;;;6.10;;
2558;SDS011;1289;53.488;10.006;2023-04-01T00:40:50;7.77;;;6.80;;
2558;SDS011;1289;53.488;10.006;2023-04-01T00:43:25;11.33;;;7.60;;
2558;SDS011;1289;53.488;10.006;2023-04-01T00:45:53;7.50;;;6.70;;
2558;SDS011;1289;53.488;10.006;2023-04-01T00:48:22;7.73;;;6.93;;
2558;SDS011;1289;53.488;10.006;2023-04-01T00:50:51;8.00;;;7.20;;
2558;SDS011;1289;53.488;10.006;2023-04-01T00:53:21;9.03;;;8.10;;
2558;SDS011;1289;53.488;10.006;2023-04-01T00:55:49;7.80;;;6.50;;
2558;SDS011;1289;53.488;10.006;2023-04-01T00:58:18;7.77;;;6.40;;
2558;SDS011;1289;53.488;10.006;2023-04-01T01:00:48;7.30;;;6.60;;
2558;SDS011;1289;53.488;10.006;2023-04-01T01:03:17;7.33;;;6.60;;
2558;SDS011;1289;53.488;10.006;2023-04-01T01:05:55;7.90;;;6.50;;
2558;SDS011;1289;53.488;10.006;2023-04-01T01:08:52;7.10;;;6.40;;
2558;SDS011;1289;53.488;10.006;2023-04-01T01:11:34;8.50;;;6.63;;
2558;SDS011;1289;53.488;10.006;2023-04-01T01:14:05;7.60;;;6.23;;
2558;SDS011;1289;53.488;10.006;2023-04-01T01:16:40;7.20;;;6.43;;
2558;SDS011;1289;53.488;10.006;2023-04-01T01:19:15;9.83;;;6.50;;
2558;SDS011;1289;53.488;10.006;2023-04-01T01:22:06;6.83;;;5.93;;
2558;SDS011;1289;53.488;10.006;2023-04-01T01:24:57;7.33;;;5.67;;
2558;SDS011;1289;53.488;10.006;2023-04-01T01:27:35;13.00;;;6.47;;
2558;SDS011;1289;53.488;10.006;2023-04-01T01:33:01;6.37;;;5.10;;
2558;SDS011;1289;53.488;10.006;2023-04-01T01:35:36;5.97;;;5.23;;
2558;SDS011;1289;53.488;10.006;2023-04-01T01:38:13;8.40;;;5.93;;
2558;SDS011;1289;53.488;10.006;2023-04-01T01:40:47;6.07;;;5.50;;
2558;SDS011;1289;53.488;10.006;2023-04-01T01:43:18;7.10;;;6.40;;
2558;SDS011;1289;53.488;10.006;2023-04-01T01:45:48;6.43;;;5.60;;
2558;SDS011;1289;53.488;10.006;2023-04-01T01:48:18;9.77;;;5.97;;
2558;SDS011;1289;53.488;10.006;2023-04-01T01:50:47;6.20;;;5.60;;
2558;SDS011;1289;53.488;10.006;2023-04-01T01:53:15;9.13;;;7.63;;
2558;SDS011;1289;53.488;10.006;2023-04-01T01:55:42;9.03;;;7.27;;
2558;SDS011;1289;53.488;10.006;2023-04-01T01:58:12;6.77;;;6.07;;
2558;SDS011;1289;53.488;10.006;2023-04-01T02:00:43;8.77;;;6.13;;
2558;SDS011;1289;53.488;10.006;2023-04-01T02:03:13;13.70;;;6.67;;
2558;SDS011;1289;53.488;10.006;2023-04-01T02:05:40;7.10;;;6.40;;
2558;SDS011;1289;53.488;10.006;2023-04-01T02:08:11;9.50;;;6.13;;
2558;SDS011;1289;53.488;10.006;2023-04-01T02:10:42;8.27;;;6.77;;
2558;SDS011;1289;53.488;10.006;2023-04-01T02:13:13;8.10;;;7.30;;
2558;SDS011;1289;53.488;10.006;2023-04-01T02:15:44;9.97;;;6.90;;
2558;SDS011;1289;53.488;10.006;2023-04-01T02:18:13;7.13;;;6.20;;
2558;SDS011;1289;53.488;10.006;2023-04-01T02:20:40;13.90;;;7.80;;
2558;SDS011;1289;53.488;10.006;2023-04-01T02:23:09;11.70;;;6.93;;
2558;SDS011;1289;53.488;10.006;2023-04-01T02:25:38;6.70;;;6.03;;
2558;SDS011;1289;53.488;10.006;2023-04-01T02:28:06;10.60;;;6.90;;
2558;SDS011;1289;53.488;10.006;2023-04-01T02:30:34;8.83;;;7.27;;
2558;SDS011;1289;53.488;10.006;2023-04-01T02:33:02;7.80;;;6.37;;
2558;SDS011;1289;53.488;10.006;2023-04-01T02:35:30;7.53;;;6.73;;
2558;SDS011;1289;53.488;10.006;2023-04-01T02:37:59;11.53;;;6.70;;
2558;SDS011;1289;53.488;10.006;2023-04-01T02:40:27;12.43;;;7.47;;
2558;SDS011;1289;53.488;10.006;2023-04-01T02:42:54;8.63;;;6.37;;
2558;SDS011;1289;53.488;10.006;2023-04-01T02:45:21;8.00;;;7.20;;
2558;SDS011;1289;53.488;10.006;2023-04-01T02:47:48;7.93;;;7.03;;
2558;SDS011;1289;53.488;10.006;2023-04-01T02:50:15;8.40;;;7.43;;
2558;SDS011;1289;53.488;10.006;2023-04-01T02:52:42;9.77;;;7.10;;
2558;SDS011;1289;53.488;10.006;2023-04-01T02:55:09;9.13;;;7.03;;
2558;SDS011;1289;53.488;10.006;2023-04-01T02:57:40;7.80;;;6.80;;
2558;SDS011;1289;53.488;10.006;2023-04-01T03:00:08;9.27;;;7.27;;
2558;SDS011;1289;53.488;10.006;2023-04-01T03:02:37;11.67;;;7.37;;
2558;SDS011;1289;53.488;10.006;2023-04-01T03:05:04;10.50;;;6.77;;
2558;SDS011;1289;53.488;10.006;2023-04-01T03:07:32;9.50;;;8.10;;
2558;SDS011;1289;53.488;10.006;2023-04-01T03:09:59;14.13;;;6.80;;
2558;SDS011;1289;53.488;10.006;2023-04-01T03:12:26;12.43;;;7.27;;
2558;SDS011;1289;53.488;10.006;2023-04-01T03:14:54;9.53;;;7.47;;
2558;SDS011;1289;53.488;10.006;2023-04-01T03:17:22;11.30;;;7.20;;
2558;SDS011;1289;53.488;10.006;2023-04-01T03:19:48;7.90;;;7.03;;
2558;SDS011;1289;53.488;10.006;2023-04-01T03:22:15;9.47;;;7.07;;
2558;SDS011;1289;53.488;10.006;2023-04-01T03:24:44;11.00;;;7.50;;
2558;SDS011;1289;53.488;10.006;2023-04-01T03:27:12;9.00;;;8.10;;
2558;SDS011;1289;53.488;10.006;2023-04-01T03:29:39;7.70;;;6.40;;
2558;SDS011;1289;53.488;10.006;2023-04-01T03:32:07;10.23;;;7.70;;
2558;SDS011;1289;53.488;10.006;2023-04-01T03:34:34;9.53;;;7.07;;
2558;SDS011;1289;53.488;10.006;2023-04-01T03:37:01;10.20;;;7.20;;
2558;SDS011;1289;53.488;10.006;2023-04-01T03:39:30;8.27;;;7.47;;
2558;SDS011;1289;53.488;10.006;2023-04-01T03:41:57;9.27;;;7.20;;
2558;SDS011;1289;53.488;10.006;2023-04-01T03:44:24;10.03;;;7.53;;
2558;SDS011;1289;53.488;10.006;2023-04-01T03:46:52;7.30;;;6.60;;
2558;SDS011;1289;53.488;10.006;2023-04-01T03:49:21;8.27;;;7.47;;
2558;SDS011;1289;53.488;10.006;2023-04-01T03:51:48;9.10;;;7.27;;
2558;SDS011;1289;53.488;10.006;2023-04-01T03:54:15;12.60;;;7.80;;
2558;SDS011;1289;53.488;10.006;2023-04-01T03:56:43;9.20;;;7.90;;
2558;SDS011;1289;53.488;10.006;2023-04-01T03:59:10;7.93;;;7.13;;
2558;SDS011;1289;53.488;10.006;2023-04-01T04:01:37;8.20;;;7.07;;
2558;SDS011;1289;53.488;10.006;2023-04-01T04:04:05;7.97;;;7.27;;
2558;SDS011;1289;53.488;10.006;2023-04-01T04:06:34;8.33;;;7.17;;
2558;SDS011;1289;53.488;10.006;2023-04-01T04:09:02;8.23;;;7.20;;
2558;SDS011;1289;53.488;10.006;2023-04-01T04:11:30;7.50;;;6.50;;
2558;SDS011;1289;53.488;10.006;2023-04-01T04:13:57;8.90;;;7.77;;
2558;SDS011;1289;53.488;10.006;2023-04-01T04:16:24;9.03;;;7.40;;
2558;SDS011;1289;53.488;10.006;2023-04-01T04:19:00;7.43;;;6.73;;
2558;SDS011;1289;53.488;10.006;2023-04-01T04:21:27;9.03;;;7.57;;
2558;SDS011;1289;53.488;10.006;2023-04-01T04:23:55;10.93;;;8.30;;
2558;SDS011;1289;53.488;10.006;2023-04-01T04:26:24;10.07;;;7.47;;
2558;SDS011;1289;53.488;10.006;2023-04-01T04:28:58;8.97;;;7.90;;
2558;SDS011;1289;53.488;10.006;2023-04-01T04:31:25;8.47;;;7.60;;
2558;SDS011;1289;53.488;10.006;2023-04-01T04:33:55;8.13;;;7.13;;
2558;SDS011;1289;53.488;10.006;2023-04-01T04:36:22;8.10;;;7.30;;
2558;SDS011;1289;53.488;10.006;2023-04-01T04:38:50;9.00;;;7.47;;
2558;SDS011;1289;53.488;10.006;2023-04-01T04:41:19;7.33;;;6.73;;
2558;SDS011;1289;53.488;10.006;2023-04-01T04:43:49;9.43;;;6.80;;
2558;SDS011;1289;53.488;10.006;2023-04-01T04:46:17;10.60;;;6.63;;
2558;SDS011;1289;53.488;10.006;2023-04-01T04:48:46;7.17;;;6.50;;
2558;SDS011;1289;53.488;10.006;2023-04-01T04:51:14;9.20;;;6.57;;
2558;SDS011;1289;53.488;10.006;2023-04-01T04:53:42;10.90;;;7.27;;
2558;SDS011;1289;53.488;10.006;2023-04-01T04:56:09;8.50;;;7.57;;
2558;SDS011;1289;53.488;10.006;2023-04-01T04:58:53;8.27;;;6.70;;
2558;SDS011;1289;53.488;10.006;2023-04-01T05:01:24;10.30;;;7.47;;
2558;SDS011;1289;53.488;10.006;2023-04-01T05:03:51;12.23;;;8.10;;
2558;SDS011;1289;53.488;10.006;2023-04-01T05:06:19;10.37;;;8.20;;
2558;SDS011;1289;53.488;10.006;2023-04-01T05:08:46;8.50;;;7.60;;
2558;SDS011;1289;53.488;10.006;2023-04-01T05:11:14;9.60;;;8.30;;
2558;SDS011;1289;53.488;10.006;2023-04-01T05:13:42;8.20;;;7.40;;
2558;SDS011;1289;53.488;10.006;2023-04-01T05:16:11;7.77;;;6.97;;
2558;SDS011;1289;53.488;10.006;2023-04-01T05:18:39;9.83;;;7.87;;
2558;SDS011;1289;53.488;10.006;2023-04-01T05:21:06;13.43;;;7.57;;
2558;SDS011;1289;53.488;10.006;2023-04-01T05:23:34;10.87;;;8.03;;
2558;SDS011;1289;53.488;10.006;2023-04-01T05:26:02;10.97;;;8.20;;
2558;SDS011;1289;53.488;10.006;2023-04-01T05:28:32;9.83;;;7.90;;
2558;SDS011;1289;53.488;10.006;2023-04-01T05:30:59;8.43;;;7.60;;
2558;SDS011;1289;53.488;10.006;2023-04-01T05:33:34;8.23;;;7.30;;
2558;SDS011;1289;53.488;10.006;2023-04-01T05:36:07;9.43;;;7.33;;
2558;SDS011;1289;53.488;10.006;2023-04-01T05:38:34;8.50;;;7.70;;
2558;SDS011;1289;53.488;10.006;2023-04-01T05:41:02;12.37;;;8.90;;
2558;SDS011;1289;53.488;10.006;2023-04-01T05:43:31;10.33;;;8.60;;
2558;SDS011;1289;53.488;10.006;2023-04-01T05:46:07;10.90;;;8.30;;
2558;SDS011;1289;53.488;10.006;2023-04-01T05:48:41;8.67;;;7.70;;
2558;SDS011;1289;53.488;10.006;2023-04-01T05:51:11;10.20;;;8.23;;
2558;SDS011;1289;53.488;10.006;2023-04-01T05:53:38;7.97;;;7.17;;
2558;SDS011;1289;53.488;10.006;2023-04-01T05:56:06;9.47;;;8.40;;
2558;SDS011;1289;53.488;10.006;2023-04-01T05:58:38;10.17;;;7.43;;
2558;SDS011;1289;53.488;10.006;2023-04-01T06:01:08;8.30;;;7.50;;
2558;SDS011;1289;53.488;10.006;2023-04-01T06:03:36;9.10;;;7.90;;
2558;SDS011;1289;53.488;10.006;2023-04-01T06:06:11;9.37;;;7.47;;
2558;SDS011;1289;53.488;10.006;2023-04-01T06:08:41;10.03;;;7.17;;
2558;SDS011;1289;53.488;10.006;2023-04-01T06:11:12;6.03;;;4.30;;
2558;SDS011;1289;53.488;10.006;2023-04-01T06:13:57;3.57;;;3.27;;
2558;SDS011;1289;53.488;10.006;2023-04-01T06:16:33;3.47;;;3.27;;
2558;SDS011;1289;53.488;10.006;2023-04-01T06:19:22;2.97;;;2.67;;
2558;SDS011;1289;53.488;10.006;2023-04-01T06:25:02;2.83;;;2.63;;
2558;SDS011;1289;53.488;10.006;2023-04-01T06:27:43;3.40;;;3.10;;
2558;SDS011;1289;53.488;10.006;2023-04-01T06:30:33;2.97;;;2.77;;
2558;SDS011;1289;53.488;10.006;2023-04-01T06:33:15;3.00;;;2.80;;
2558;SDS011;1289;53.488;10.006;2023-04-01T06:36:12;2.73;;;2.53;;
2558;SDS011;1289;53.488;10.006;2023-04-01T06:44:55;3.10;;;2.90;;
2558;SDS011;1289;53.488;10.006;2023-04-01T06:47:54;3.30;;;3.10;;
2558;SDS011;1289;53.488;10.006;2023-04-01T06:50:48;3.27;;;3.07;;
2558;SDS011;1289;53.488;10.006;2023-04-01T06:53:43;3.70;;;2.60;;
2558;SDS011;1289;53.488;10.006;2023-04-01T06:56:52;3.47;;;2.90;;
2558;SDS011;1289;53.488;10.006;2023-04-01T06:59:25;3.43;;;3.23;;
2558;SDS011;1289;53.488;10.006;2023-04-01T07:01:53;2.63;;;2.43;;
2558;SDS011;1289;53.488;10.006;2023-04-01T07:04:22;5.97;;;3.00;;
2558;SDS011;1289;53.488;10.006;2023-04-01T07:06:52;2.87;;;2.67;;
2558;SDS011;1289;53.488;10.006;2023-04-01T07:09:21;2.90;;;2.70;;
2558;SDS011;1289;53.488;10.006;2023-04-01T07:12:15;2.90;;;2.70;;
2558;SDS011;1289;53.488;10.006;2023-04-01T07:18:50;3.00;;;2.80;;
2558;SDS011;1289;53.488;10.006;2023-04-01T07:21:25;3.03;;;2.83;;
2558;SDS011;1289;53.488;10.006;2023-04-01T07:23:56;3.33;;;2.83;;
2558;SDS011;1289;53.488;10.006;2023-04-01T07:26:34;4.37;;;2.60;;
2558;SDS011;1289;53.488;10.006;2023-04-01T07:29:11;2.80;;;2.60;;
2558;SDS011;1289;53.488;10.006;2023-04-01T07:31:51;3.00;;;2.70;;
2558;SDS011;1289;53.488;10.006;2023-04-01T07:34:27;2.77;;;2.57;;
2558;SDS011;1289;53.488;10.006;2023-04-01T07:37:05;2.70;;;2.50;;
2558;SDS011;1289;53.488;10.006;2023-04-01T07:42:40;2.80;;;2.60;;
2558;SDS011;1289;53.488;10.006;2023-04-01T07:45:18;2.73;;;2.53;;
2558;SDS011;1289;53.488;10.006;2023-04-01T07:48:01;2.53;;;2.43;;
2558;SDS011;1289;53.488;10.006;2023-04-01T07:50:37;2.90;;;2.70;;
2558;SDS011;1289;53.488;10.006;2023-04-01T07:53:16;6.27;;;2.57;;
2558;SDS011;1289;53.488;10.006;2023-04-01T07:55:50;2.47;;;2.27;;
2558;SDS011;1289;53.488;10.006;2023-04-01T07:58:22;2.30;;;2.20;;
2558;SDS011;1289;53.488;10.006;2023-04-01T08:00:56;2.23;;;2.13;;
2558;SDS011;1289;53.488;10.006;2023-04-01T08:03:40;2.97;;;2.67;;
2558;SDS011;1289;53.488;10.006;2023-04-01T08:06:27;2.70;;;2.50;;
2558;SDS011;1289;53.488;10.006;2023-04-01T08:09:00;2.70;;;2.50;;
2558;SDS011;1289;53.488;10.006;2023-04-01T08:15:20;3.07;;;2.77;;
2558;SDS011;1289;53.488;10.006;2023-04-01T08:18:06;2.50;;;2.30;;
2558;SDS011;1289;53.488;10.006;2023-04-01T08:20:41;2.57;;;2.40;;
2558;SDS011;1289;53.488;10.006;2023-04-01T08:23:12;3.03;;;2.37;;
2558;SDS011;1289;53.488;10.006;2023-04-01T08:25:43;2.57;;;2.40;;
2558;SDS011;1289;53.488;10.006;2023-04-01T08:28:15;2.90;;;2.57;;
2558;SDS011;1289;53.488;10.006;2023-04-01T08:30:45;2.63;;;2.43;;
2558;SDS011;1289;53.488;10.006;2023-04-01T08:33:26;2.53;;;2.33;;
2558;SDS011;1289;53.488;10.006;2023-04-01T08:36:02;2.83;;;2.63;;
2558;SDS011;1289;53.488;10.006;2023-04-01T08:38:32;3.00;;;2.80;;
2558;SDS011;1289;53.488;10.006;2023-04-01T08:41:18;4.80;;;2.60;;
2558;SDS011;1289;53.488;10.006;2023-04-01T08:44:30;2.80;;;2.60;;
2558;SDS011;1289;53.488;10.006;2023-04-01T08:50:00;2.83;;;2.40;;
2558;SDS011;1289;53.488;10.006;2023-04-01T08:52:53;2.53;;;2.33;;
2558;SDS011;1289;53.488;10.006;2023-04-01T08:55:36;2.47;;;2.37;;
2558;SDS011;1289;53.488;10.006;2023-04-01T08:58:22;2.57;;;2.43;;
2558;SDS011;1289;53.488;10.006;2023-04-01T09:01:43;2.63;;;2.43;;
2558;SDS011;1289;53.488;10.006;2023-04-01T09:04:46;2.70;;;2.50;;
2558;SDS011;1289;53.488;10.006;2023-04-01T09:07:40;2.50;;;2.37;;
2558;SDS011;1289;53.488;10.006;2023-04-01T09:23:23;2.80;;;2.60;;
2558;SDS011;1289;53.488;10.006;2023-04-01T09:26:51;4.37;;;2.60;;
2558;SDS011;1289;53.488;10.006;2023-04-01T09:29:30;2.53;;;2.43;;
2558;SDS011;1289;53.488;10.006;2023-04-01T09:32:45;2.63;;;2.43;;
2558;SDS011;1289;53.488;10.006;2023-04-01T09:35:31;5.23;;;2.43;;
2558;SDS011;1289;53.488;10.006;2023-04-01T09:38:48;2.90;;;2.70;;
2558;SDS011;1289;53.488;10.006;2023-04-01T09:41:23;2.90;;;2.70;;
2558;SDS011;1289;53.488;10.006;2023-04-01T09:44:12;2.50;;;2.30;;
2558;SDS011;1289;53.488;10.006;2023-04-01T09:47:09;2.73;;;2.53;;
2558;SDS011;1289;53.488;10.006;2023-04-01T09:50:00;2.83;;;2.63;;
2558;SDS011;1289;53.488;10.006;2023-04-01T09:52:46;2.77;;;2.57;;
2558;SDS011;1289;53.488;10.006;2023-04-01T09:55:50;2.70;;;2.50;;
2558;SDS011;1289;53.488;10.006;2023-04-01T10:03:01;5.63;;;2.60;;
2558;SDS011;1289;53.488;10.006;2023-04-01T10:21:13;3.10;;;2.80;;
2558;SDS011;1289;53.488;10.006;2023-04-01T10:30:01;2.93;;;2.63;;
2558;SDS011;1289;53.488;10.006;2023-04-01T10:32:44;2.63;;;2.43;;
2558;SDS011;1289;53.488;10.006;2023-04-01T10:35:47;2.40;;;2.30;;
2558;SDS011;1289;53.488;10.006;2023-04-01T10:41:51;2.60;;;2.40;;
2558;SDS011;1289;53.488;10.006;2023-04-01T10:48:15;2.67;;;2.47;;
2558;SDS011;1289;53.488;10.006;2023-04-01T10:51:01;2.33;;;2.13;;
2558;SDS011;1289;53.488;10.006;2023-04-01T10:53:40;2.73;;;2.53;;
2558;SDS011;1289;53.488;10.006;2023-04-01T11:06:30;2.93;;;2.73;;
2558;SDS011;1289;53.488;10.006;2023-04-01T11:12:35;2.73;;;2.30;;
2558;SDS011;1289;53.488;10.006;2023-04-01T11:15:31;3.50;;;2.77;;
2558;SDS011;1289;53.488;10.006;2023-04-01T11:18:35;2.80;;;2.60;;
2558;SDS011;1289;53.488;10.006;2023-04-01T11:24:40;2.83;;;2.63;;
2558;SDS011;1289;53.488;10.006;2023-04-01T11:31:04;3.33;;;3.03;;
2558;SDS011;1289;53.488;10.006;2023-04-01T11:33:44;2.80;;;2.60;;
2558;SDS011;1289;53.488;10.006;2023-04-01T11:36:20;2.60;;;2.40;;
2558;SDS011;1289;53.488;10.006;2023-04-01T11:38:57;2.97;;;2.77;;
2558;SDS011;1289;53.488;10.006;2023-04-01T11:41:49;3.13;;;2.93;;
2558;SDS011;1289;53.488;10.006;2023-04-01T11:44:46;3.40;;;3.20;;
2558;SDS011;1289;53.488;10.006;2023-04-01T11:50:23;3.07;;;2.83;;
2558;SDS011;1289;53.488;10.006;2023-04-01T11:53:01;3.00;;;2.80;;
2558;SDS011;1289;53.488;10.006;2023-04-01T11:55:33;3.00;;;2.80;;
2558;SDS011;1289;53.488;10.006;2023-04-01T11:58:12;3.10;;;2.90;;
2558;SDS011;1289;53.488;10.006;2023-04-01T12:00:51;3.30;;;3.10;;
2558;SDS011;1289;53.488;10.006;2023-04-01T12:03:32;3.77;;;3.27;;
2558;SDS011;1289;53.488;10.006;2023-04-01T12:06:13;3.50;;;3.30;;
2558;SDS011;1289;53.488;10.006;2023-04-01T12:08:44;3.40;;;3.13;;
2558;SDS011;1289;53.488;10.006;2023-04-01T12:11:15;3.37;;;3.17;;
2558;SDS011;1289;53.488;10.006;2023-04-01T12:13:45;3.83;;;3.57;;
2558;SDS011;1289;53.488;10.006;2023-04-01T12:16:25;4.00;;;3.70;;
2558;SDS011;1289;53.488;10.006;2023-04-01T12:18:57;3.60;;;3.40;;
2558;SDS011;1289;53.488;10.006;2023-04-01T12:21:28;4.70;;;4.30;;
2558;SDS011;1289;53.488;10.006;2023-04-01T12:27:15;4.20;;;3.83;;
2558;SDS011;1289;53.488;10.006;2023-04-01T12:29:53;4.77;;;4.33;;
2558;SDS011;1289;53.488;10.006;2023-04-01T12:32:30;4.03;;;3.73;;
2558;SDS011;1289;53.488;10.006;2023-04-01T12:35:10;4.90;;;4.50;;
2558;SDS011;1289;53.488;10.006;2023-04-01T12:37:45;4.70;;;4.30;;
2558;SDS011;1289;53.488;10.006;2023-04-01T12:40:20;4.27;;;3.97;;
2558;SDS011;1289;53.488;10.006;2023-04-01T12:42:57;4.20;;;3.90;;
2558;SDS011;1289;53.488;10.006;2023-04-01T12:45:45;4.13;;;3.83;;
2558;SDS011;1289;53.488;10.006;2023-04-01T12:51:24;4.60;;;4.20;;
2558;SDS011;1289;53.488;10.006;2023-04-01T12:57:06;5.37;;;4.87;;
2558;SDS011;1289;53.488;10.006;2023-04-01T12:59:51;4.80;;;4.30;;
2558;SDS011;1289;53.488;10.006;2023-04-01T13:02:27;4.63;;;4.33;;
2558;SDS011;1289;53.488;10.006;2023-04-01T13:07:57;4.30;;;4.00;;
2558;SDS011;1289;53.488;10.006;2023-04-01T13:10:37;4.97;;;4.67;;
2558;SDS011;1289;53.488;10.006;2023-04-01T13:13:14;4.70;;;4.30;;
2558;SDS011;1289;53.488;10.006;2023-04-01T13:15:58;5.93;;;4.70;;
2558;SDS011;1289;53.488;10.006;2023-04-01T13:18:32;4.97;;;4.57;;
2558;SDS011;1289;53.488;10.006;2023-04-01T13:21:05;5.03;;;4.50;;
2558;SDS011;1289;53.488;10.006;2023-04-01T13:23:39;5.23;;;4.73;;
2558;SDS011;1289;53.488;10.006;2023-04-01T13:26:13;5.30;;;4.80;;
2558;SDS011;1289;53.488;10.006;2023-04-01T13:28:49;5.33;;;4.90;;
2558;SDS011;1289;53.488;10.006;2023-04-01T13:31:23;4.90;;;4.43;;
2558;SDS011;1289;53.488;10.006;2023-04-01T13:33:57;5.30;;;4.90;;
2558;SDS011;1289;53.488;10.006;2023-04-01T13:36:31;4.90;;;4.40;;
2558;SDS011;1289;53.488;10.006;2023-04-01T13:42:00;5.03;;;4.63;;
2558;SDS011;1289;53.488;10.006;2023-04-01T13:44:36;4.70;;;4.40;;
2558;SDS011;1289;53.488;10.006;2023-04-01T13:47:10;4.87;;;4.47;;
2558;SDS011;1289;53.488;10.006;2023-04-01T13:49:48;8.67;;;4.70;;
2558;SDS011;1289;53.488;10.006;2023-04-01T13:55:34;4.70;;;4.30;;
2558;SDS011;1289;53.488;10.006;2023-04-01T14:00:56;7.00;;;4.20;;
2558;SDS011;1289;53.488;10.006;2023-04-01T14:03:30;4.67;;;4.30;;
2558;SDS011;1289;53.488;10.006;2023-04-01T14:06:15;7.57;;;4.30;;
2558;SDS011;1289;53.488;10.006;2023-04-01T14:11:57;5.37;;;4.67;;
2558;SDS011;1289;53.488;10.006;2023-04-01T14:14:33;5.00;;;4.60;;
2558;SDS011;1289;53.488;10.006;2023-04-01T14:17:12;5.33;;;4.83;;
2558;SDS011;1289;53.488;10.006;2023-04-01T14:22:46;4.90;;;4.50;;
2558;SDS011;1289;53.488;10.006;2023-04-01T14:25:33;8.90;;;5.63;;
2558;SDS011;1289;53.488;10.006;2023-04-01T14:28:09;6.10;;;5.00;;
2558;SDS011;1289;53.488;10.006;2023-04-01T14:30:42;5.93;;;4.90;;
2558;SDS011;1289;53.488;10.006;2023-04-01T14:33:23;5.73;;;5.30;;
2558;SDS011;1289;53.488;10.006;2023-04-01T14:35:58;5.53;;;5.03;;
2558;SDS011;1289;53.488;10.006;2023-04-01T14:38:39;5.90;;;5.30;;
2558;SDS011;1289;53.488;10.006;2023-04-01T14:41:19;5.77;;;5.30;;
2558;SDS011;1289;53.488;10.006;2023-04-01T14:43:54;5.60;;;5.20;;
2558;SDS011;1289;53.488;10.006;2023-04-01T14:46:51;5.93;;;5.43;;
2558;SDS011;1289;53.488;10.006;2023-04-01T14:49:39;6.43;;;5.87;;
2558;SDS011;1289;53.488;10.006;2023-04-01T14:52:10;7.07;;;5.33;;
2558;SDS011;1289;53.488;10.006;2023-04-01T14:54:41;7.10;;;6.43;;
2558;SDS011;1289;53.488;10.006;2023-04-01T14:57:10;6.77;;;6.17;;
2558;SDS011;1289;53.488;10.006;2023-04-01T14:59:39;5.90;;;5.40;;
2558;SDS011;1289;53.488;10.006;2023-04-01T15:02:14;6.03;;;5.37;;
2558;SDS011;1289;53.488;10.006;2023-04-01T15:04:54;6.90;;;6.00;;
2558;SDS011;1289;53.488;10.006;2023-04-01T15:07:42;7.13;;;6.37;;
2558;SDS011;1289;53.488;10.006;2023-04-01T15:10:26;6.60;;;5.87;;
2558;SDS011;1289;53.488;10.006;2023-04-01T15:13:05;6.90;;;5.00;;
2558;SDS011;1289;53.488;10.006;2023-04-01T15:15:41;6.20;;;5.60;;
2558;SDS011;1289;53.488;10.006;2023-04-01T15:18:17;6.03;;;5.43;;
2558;SDS011;1289;53.488;10.006;2023-04-01T15:23:54;6.53;;;6.03;;
2558;SDS011;1289;53.488;10.006;2023-04-01T15:26:29;7.83;;;5.30;;
2558;SDS011;1289;53.488;10.006;2023-04-01T15:29:06;6.30;;;5.80;;
2558;SDS011;1289;53.488;10.006;2023-04-01T15:31:42;7.03;;;6.20;;
2558;SDS011;1289;53.488;10.006;2023-04-01T15:34:23;6.97;;;6.10;;
2558;SDS011;1289;53.488;10.006;2023-04-01T15:36:56;7.70;;;7.00;;
2558;SDS011;1289;53.488;10.006;2023-04-01T15:39:24;7.00;;;6.40;;
2558;SDS011;1289;53.488;10.006;2023-04-01T15:42:08;7.00;;;6.10;;
2558;SDS011;1289;53.488;10.006;2023-04-01T15:44:43;7.27;;;6.57;;
2558;SDS011;1289;53.488;10.006;2023-04-01T15:52:58;6.87;;;6.27;;
2558;SDS011;1289;53.488;10.006;2023-04-01T15:55:33;7.00;;;6.10;;
2558;SDS011;1289;53.488;10.006;2023-04-01T15:58:06;6.43;;;5.93;;
2558;SDS011;1289;53.488;10.006;2023-04-01T16:00:46;7.33;;;6.00;;
2558;SDS011;1289;53.488;10.006;2023-04-01T16:03:19;8.43;;;7.60;;
2558;SDS011;1289;53.488;10.006;2023-04-01T16:05:54;6.80;;;6.20;;
2558;SDS011;1289;53.488;10.006;2023-04-01T16:08:39;6.60;;;6.00;;
2558;SDS011;1289;53.488;10.006;2023-04-01T16:11:17;8.03;;;7.23;;
2558;SDS011;1289;53.488;10.006;2023-04-01T16:13:48;8.53;;;6.50;;
2558;SDS011;1289;53.488;10.006;2023-04-01T16:16:24;9.17;;;6.80;;
2558;SDS011;1289;53.488;10.006;2023-04-01T16:19:02;9.60;;;7.40;;
2558;SDS011;1289;53.488;10.006;2023-04-01T16:21:38;7.47;;;6.67;;
2558;SDS011;1289;53.488;10.006;2023-04-01T16:24:13;9.47;;;6.97;;
2558;SDS011;1289;53.488;10.006;2023-04-01T16:26:45;7.90;;;7.10;;
2558;SDS011;1289;53.488;10.006;2023-04-01T16:29:17;7.43;;;6.70;;
2558;SDS011;1289;53.488;10.006;2023-04-01T16:31:48;7.63;;;6.40;;
2558;SDS011;1289;53.488;10.006;2023-04-01T16:34:19;8.20;;;7.00;;
2558;SDS011;1289;53.488;10.006;2023-04-01T16:36:51;8.70;;;7.13;;
2558;SDS011;1289;53.488;10.006;2023-04-01T16:39:28;7.30;;;6.60;;
2558;SDS011;1289;53.488;10.006;2023-04-01T16:42:14;7.40;;;6.70;;
2558;SDS011;1289;53.488;10.006;2023-04-01T16:44:47;7.77;;;6.83;;
2558;SDS011;1289;53.488;10.006;2023-04-01T16:47:17;7.20;;;6.50;;
2558;SDS011;1289;53.488;10.006;2023-04-01T16:49:46;7.47;;;6.70;;
2558;SDS011;1289;53.488;10.006;2023-04-01T16:52:34;10.10;;;7.67;;
2558;SDS011;1289;53.488;10.006;2023-04-01T16:55:08;9.27;;;6.60;;
2558;SDS011;1289;53.488;10.006;2023-04-01T16:57:43;11.00;;;7.33;;
2558;SDS011;1289;53.488;10.006;2023-04-01T17:00:15;10.10;;;8.07;;
2558;SDS011;1289;53.488;10.006;2023-04-01T17:02:47;8.97;;;7.20;;
2558;SDS011;1289;53.488;10.006;2023-04-01T17:05:17;10.37;;;7.30;;
2558;SDS011;1289;53.488;10.006;2023-04-01T17:07:46;11.97;;;7.10;;
2558;SDS011;1289;53.488;10.006;2023-04-01T17:13:10;8.90;;;7.37;;
2558;SDS011;1289;53.488;10.006;2023-04-01T17:15:54;9.00;;;8.10;;
2558;SDS011;1289;53.488;10.006;2023-04-01T17:18:27;9.20;;;8.30;;
2558;SDS011;1289;53.488;10.006;2023-04-01T17:21:02;12.03;;;7.90;;
2558;SDS011;1289;53.488;10.006;2023-04-01T17:23:34;12.30;;;9.20;;
2558;SDS011;1289;53.488;10.006;2023-04-01T17:26:06;10.93;;;7.50;;
2558;SDS011;1289;53.488;10.006;2023-04-01T17:28:46;7.70;;;6.93;;
2558;SDS011;1289;53.488;10.006;2023-04-01T17:31:18;8.67;;;7.20;;
2558;SDS011;1289;53.488;10.006;2023-04-01T17:34:02;7.97;;;7.17;;
2558;SDS011;1289;53.488;10.006;2023-04-01T17:36:51;9.40;;;6.80;;
2558;SDS011;1289;53.488;10.006;2023-04-01T17:39:29;8.43;;;7.33;;
2558;SDS011;1289;53.488;10.006;2023-04-01T17:42:05;9.47;;;7.57;;
2558;SDS011;1289;53.488;10.006;2023-04-01T17:44:38;13.93;;;8.10;;
2558;SDS011;1289;53.488;10.006;2023-04-01T17:47:15;10.10;;;6.53;;
2558;SDS011;1289;53.488;10.006;2023-04-01T17:49:51;10.07;;;7.17;;
2558;SDS011;1289;53.488;10.006;2023-04-01T17:52:24;10.50;;;6.87;;
2558;SDS011;1289;53.488;10.006;2023-04-01T17:54:54;8.10;;;7.10;;
2558;SDS011;1289;53.488;10.006;2023-04-01T17:57:28;7.47;;;6.43;;
2558;SDS011;1289;53.488;10.006;2023-04-01T18:00:01;7.90;;;7.03;;
2558;SDS011;1289;53.488;10.006;2023-04-01T18:02:38;7.00;;;6.40;;
2558;SDS011;1289;53.488;10.006;2023-04-01T18:05:18;6.37;;;5.77;;